createdAt,value
2022-08-05T00:01:28.014Z,33.71
2022-08-05T00:03:57.068Z,33.91
2022-08-05T00:06:32.322Z,33.56
2022-08-05T00:08:59.410Z,33.42
2022-08-05T00:11:35.199Z,33.51
2022-08-05T00:14:16.816Z,33.79
2022-08-05T00:16:52.699Z,33.73
2022-08-05T00:19:21.495Z,33.49
2022-08-05T00:21:48.764Z,33.50
2022-08-05T00:24:16.246Z,33.43
2022-08-05T00:26:52.002Z,33.34
2022-08-05T00:29:19.234Z,33.42
2022-08-05T00:32:10.495Z,33.36
2022-08-05T00:34:56.865Z,33.67
2022-08-05T00:37:22.072Z,33.51
2022-08-05T00:39:57.858Z,33.24
2022-08-05T00:42:31.589Z,33.02
2022-08-05T00:44:58.754Z,32.77
2022-08-05T00:47:25.821Z,32.87
2022-08-05T00:49:52.243Z,32.78
2022-08-05T00:52:18.672Z,32.24
2022-08-05T00:54:54.866Z,32.40
2022-08-05T00:57:22.778Z,32.71
2022-08-05T00:59:51.945Z,33.18
2022-08-05T01:02:18.359Z,33.19
2022-08-05T01:04:44.775Z,33.51
2022-08-05T01:07:17.982Z,33.53
2022-08-05T01:09:44.540Z,33.62
2022-08-05T01:12:18.433Z,33.56
2022-08-05T01:14:45.494Z,33.84
2022-08-05T01:17:11.899Z,33.71
2022-08-05T01:20:01.204Z,33.80
2022-08-05T01:22:27.998Z,33.76
2022-08-05T01:24:54.698Z,33.70
2022-08-05T01:27:22.233Z,33.88
2022-08-05T01:29:48.737Z,33.62
2022-08-05T01:32:18.611Z,33.61
2022-08-05T01:34:45.295Z,33.80
2022-08-05T01:37:24.595Z,33.90
2022-08-05T01:39:51.780Z,34.08
2022-08-05T01:42:20.595Z,33.93
2022-08-05T01:44:54.379Z,33.78
2022-08-05T01:47:21.470Z,33.83
2022-08-05T01:50:01.781Z,34.08
2022-08-05T01:52:29.357Z,34.20
2022-08-05T01:54:56.773Z,34.20
2022-08-05T01:58:11.343Z,33.96
2022-08-05T02:00:12.114Z,34.11
2022-08-05T02:02:38.733Z,34.09
2022-08-05T02:05:17.491Z,34.29
2022-08-05T02:08:00.314Z,34.32
2022-08-05T02:10:28.720Z,34.45
2022-08-05T02:12:55.217Z,34.28
2022-08-05T02:15:21.635Z,34.33
2022-08-05T02:18:30.966Z,34.26
2022-08-05T02:20:38.921Z,34.48
2022-08-05T02:23:05.660Z,34.57
2022-08-05T02:25:49.784Z,34.32
2022-08-05T02:28:17.002Z,34.52
2022-08-05T02:30:56.684Z,34.56
2022-08-05T02:33:24.498Z,34.49
2022-08-05T02:36:02.741Z,34.25
2022-08-05T02:38:34.988Z,34.05
2022-08-05T02:41:14.787Z,33.91
2022-08-05T02:44:02.919Z,34.14
2022-08-05T02:46:30.225Z,34.12
2022-08-05T02:48:56.833Z,34.27
2022-08-05T02:51:28.231Z,34.53
2022-08-05T02:54:09.653Z,34.42
2022-08-05T02:56:56.056Z,34.53
2022-08-05T02:59:22.460Z,34.53
2022-08-05T03:01:54.170Z,34.44
2022-08-05T03:04:20.621Z,34.39
2022-08-05T03:06:55.155Z,34.14
2022-08-05T03:09:27.217Z,34.29
2022-08-05T03:12:02.995Z,34.25
2022-08-05T03:14:29.408Z,34.36
2022-08-05T03:16:57.049Z,34.29
2022-08-05T03:19:34.122Z,34.30
2022-08-05T03:22:02.311Z,34.08
2022-08-05T03:24:31.297Z,33.95
2022-08-05T03:27:00.140Z,34.06
2022-08-05T03:29:44.479Z,34.40
2022-08-05T03:32:14.375Z,34.08
2022-08-05T03:34:40.991Z,34.09
2022-08-05T03:37:07.612Z,34.15
2022-08-05T03:39:38.225Z,34.21
2022-08-05T03:42:20.419Z,34.19
2022-08-05T03:44:46.834Z,34.05
2022-08-05T03:47:14.030Z,34.09
2022-08-05T03:49:51.848Z,34.10
2022-08-05T03:52:37.526Z,34.29
2022-08-05T03:56:04.360Z,34.29
2022-08-05T03:57:51.708Z,34.22
2022-08-05T04:00:18.105Z,34.39
2022-08-05T04:02:51.942Z,34.47
2022-08-05T04:05:24.619Z,34.57
2022-08-05T04:07:58.623Z,34.74
2022-08-05T04:10:25.306Z,34.79
2022-08-05T04:12:54.418Z,35.01
2022-08-05T04:15:21.233Z,34.68
2022-08-05T04:17:56.581Z,34.59
2022-08-05T04:20:23.841Z,34.57
2022-08-05T04:22:50.241Z,34.47
2022-08-05T04:25:17.061Z,34.47
2022-08-05T04:27:57.318Z,34.54
2022-08-05T04:30:24.664Z,34.44
2022-08-05T04:32:53.008Z,34.55
2022-08-05T04:35:19.774Z,34.67
2022-08-05T04:38:02.541Z,34.74
2022-08-05T04:40:32.831Z,34.79
2022-08-05T04:42:59.324Z,34.33
2022-08-05T04:45:48.408Z,34.35
2022-08-05T04:48:16.573Z,34.41
2022-08-05T04:51:02.603Z,34.69
2022-08-05T04:53:29.575Z,34.67
2022-08-05T04:56:33.873Z,34.78
2022-08-05T04:58:46.514Z,34.86
2022-08-05T05:01:13.420Z,35.10
2022-08-05T05:03:42.165Z,35.21
2022-08-05T05:06:35.808Z,35.54
2022-08-05T05:08:55.532Z,35.66
2022-08-05T05:11:21.933Z,35.70
2022-08-05T05:14:08.654Z,36.10
2022-08-05T05:16:42.345Z,36.11
2022-08-05T05:19:19.227Z,36.18
2022-08-05T05:21:49.774Z,36.37
2022-08-05T05:24:22.019Z,36.39
2022-08-05T05:26:48.438Z,36.52
2022-08-05T05:29:18.418Z,36.46
2022-08-05T05:31:46.345Z,36.70
2022-08-05T05:34:13.056Z,36.53
2022-08-05T05:36:42.054Z,36.57
2022-08-05T05:39:10.902Z,36.59
2022-08-05T05:41:39.960Z,36.74
2022-08-05T05:44:35.570Z,36.82
2022-08-05T05:46:53.806Z,37.09
2022-08-05T05:49:23.370Z,36.97
2022-08-05T05:51:50.806Z,36.77
2022-08-05T05:54:19.845Z,36.93
2022-08-05T05:56:46.249Z,37.08
2022-08-05T05:59:13.823Z,37.13
2022-08-05T06:01:40.335Z,37.84
2022-08-05T06:04:06.859Z,38.19
2022-08-05T06:06:35.000Z,38.70
2022-08-05T06:09:01.533Z,38.55
2022-08-05T06:11:30.420Z,38.41
2022-08-05T06:13:56.834Z,38.61
2022-08-05T06:16:29.920Z,38.53
2022-08-05T06:19:00.947Z,38.68
2022-08-05T06:21:36.540Z,38.91
2022-08-05T06:24:04.227Z,38.95
2022-08-05T06:26:31.885Z,39.39
2022-08-05T06:29:03.525Z,39.30
2022-08-05T06:31:46.794Z,39.54
2022-08-05T06:34:13.623Z,39.49
2022-08-05T06:36:58.169Z,39.43
2022-08-05T06:39:27.096Z,39.27
2022-08-05T06:41:54.104Z,39.11
2022-08-05T06:44:22.076Z,39.09
2022-08-05T06:46:50.919Z,38.65
2022-08-05T06:49:17.607Z,38.58
2022-08-05T06:51:45.452Z,38.46
2022-08-05T06:54:12.056Z,38.20
2022-08-05T06:56:55.048Z,38.12
2022-08-05T06:59:38.771Z,38.14
2022-08-05T07:02:08.694Z,38.16
2022-08-05T07:04:35.111Z,38.88
2022-08-05T07:07:02.864Z,38.84
2022-08-05T07:09:40.579Z,39.13
2022-08-05T07:12:09.714Z,39.42
2022-08-05T07:14:36.830Z,39.74
2022-08-05T07:17:58.837Z,39.87
2022-08-05T07:22:36.841Z,40.19
2022-08-05T07:25:22.394Z,40.15
2022-08-05T07:27:58.072Z,39.80
2022-08-05T07:30:32.298Z,40.16
2022-08-05T07:32:59.450Z,40.58
2022-08-05T07:36:05.298Z,41.14
2022-08-05T07:38:26.310Z,41.38
2022-08-05T07:41:00.362Z,41.46
2022-08-05T07:43:31.149Z,41.42
2022-08-05T07:45:58.489Z,41.37
2022-08-05T07:49:00.503Z,41.24
2022-08-05T07:51:23.742Z,41.55
2022-08-05T07:53:58.219Z,42.03
2022-08-05T07:57:02.784Z,41.82
2022-08-05T07:59:11.015Z,41.34
2022-08-05T08:01:41.602Z,41.94
2022-08-05T08:04:37.285Z,42.41
2022-08-05T08:07:07.196Z,42.19
2022-08-05T08:09:33.998Z,42.37
2022-08-05T08:12:08.329Z,42.15
2022-08-05T08:14:40.933Z,42.75
2022-08-05T08:17:07.324Z,42.89
2022-08-05T08:20:22.899Z,43.08
2022-08-05T08:22:21.286Z,43.18
2022-08-05T08:24:53.413Z,43.07
2022-08-05T08:27:19.833Z,42.95
2022-08-05T08:30:06.170Z,42.55
2022-08-05T08:32:32.713Z,42.44
2022-08-05T08:34:59.111Z,42.17
2022-08-05T08:37:28.042Z,42.28
2022-08-05T08:39:54.687Z,42.51
2022-08-05T08:42:33.899Z,42.46
2022-08-05T08:45:20.091Z,42.29
2022-08-05T08:48:07.750Z,42.49
2022-08-05T08:51:03.284Z,42.84
2022-08-05T08:53:20.220Z,43.12
2022-08-05T08:56:03.838Z,43.23
2022-08-05T08:58:43.252Z,43.31
2022-08-05T09:01:15.731Z,43.46
2022-08-05T09:03:45.208Z,43.49
2022-08-05T09:06:14.691Z,43.22
2022-08-05T09:08:44.987Z,43.32
2022-08-05T09:11:13.714Z,43.62
2022-08-05T09:14:00.691Z,43.19
2022-08-05T09:16:27.047Z,43.25
2022-08-05T09:18:53.480Z,43.10
2022-08-05T09:22:22.396Z,42.70
2022-08-05T09:24:08.350Z,42.44
2022-08-05T09:26:36.758Z,42.39
2022-08-05T09:29:03.206Z,42.16
2022-08-05T09:32:41.352Z,42.33
2022-08-05T09:34:16.012Z,42.43
2022-08-05T09:36:54.115Z,41.97
2022-08-05T09:39:23.081Z,41.82
2022-08-05T09:41:53.964Z,41.63
2022-08-05T09:44:22.829Z,41.79
2022-08-05T09:46:51.961Z,41.26
2022-08-05T09:49:20.215Z,41.42
2022-08-05T09:51:49.557Z,41.60
2022-08-05T09:54:16.699Z,41.34
2022-08-05T09:56:55.336Z,41.39
2022-08-05T09:59:24.139Z,41.50
2022-08-05T10:01:57.912Z,41.70
2022-08-05T10:04:28.683Z,41.76
2022-08-05T10:06:59.435Z,41.54
2022-08-05T10:09:29.537Z,41.73
2022-08-05T10:11:56.292Z,41.53
2022-08-05T10:14:25.049Z,41.63
2022-08-05T10:16:53.548Z,42.08
2022-08-05T10:19:23.602Z,42.62
2022-08-05T10:21:58.416Z,42.92
2022-08-05T10:24:24.995Z,43.13
2022-08-05T10:26:53.671Z,43.55
2022-08-05T10:29:23.953Z,44.17
2022-08-05T10:32:53.762Z,44.83
2022-08-05T10:34:52.886Z,44.49
2022-08-05T10:37:19.304Z,44.26
2022-08-05T10:40:03.533Z,44.31
2022-08-05T10:42:33.806Z,43.87
2022-08-05T10:45:00.982Z,43.61
2022-08-05T10:47:31.116Z,43.28
2022-08-05T10:50:32.863Z,42.80
2022-08-05T10:52:49.627Z,42.18
2022-08-05T10:55:18.540Z,41.54
2022-08-05T10:57:45.021Z,41.37
2022-08-05T11:00:18.579Z,41.29
2022-08-05T11:02:50.386Z,41.09
2022-08-05T11:05:18.138Z,40.83
2022-08-05T11:08:03.162Z,40.16
2022-08-05T11:10:31.162Z,39.41
2022-08-05T11:12:57.577Z,38.89
2022-08-05T11:15:24.176Z,38.75
2022-08-05T11:18:11.821Z,38.38
2022-08-05T11:20:39.205Z,37.79
2022-08-05T11:23:08.974Z,37.85
2022-08-05T11:26:05.553Z,37.70
2022-08-05T11:28:23.378Z,37.67
2022-08-05T11:30:53.284Z,37.58
2022-08-05T11:33:21.242Z,37.36
2022-08-05T11:36:08.365Z,37.45
2022-08-05T11:38:45.232Z,37.46
2022-08-05T11:41:34.480Z,37.71
2022-08-05T11:44:04.925Z,37.60
2022-08-05T11:46:33.523Z,37.64
2022-08-05T11:49:01.347Z,38.06
2022-08-05T11:51:44.150Z,38.14
2022-08-05T11:54:14.403Z,38.10
2022-08-05T11:56:41.359Z,38.16
2022-08-05T11:59:13.709Z,38.41
2022-08-05T12:01:40.413Z,38.31
2022-08-05T12:04:06.860Z,38.26
2022-08-05T12:06:33.263Z,38.15
2022-08-05T12:08:59.674Z,37.79
2022-08-05T12:11:28.420Z,37.62
2022-08-05T12:14:06.445Z,37.32
2022-08-05T12:16:33.532Z,37.48
2022-08-05T12:19:04.994Z,37.32
2022-08-05T12:21:39.303Z,36.84
2022-08-05T12:24:07.028Z,36.83
2022-08-05T12:26:33.860Z,37.27
2022-08-05T12:29:01.481Z,37.41
2022-08-05T12:31:43.480Z,37.79
2022-08-05T12:34:14.609Z,38.05
2022-08-05T12:36:47.202Z,37.68
2022-08-05T12:39:13.658Z,37.70
2022-08-05T12:41:43.716Z,37.71
2022-08-05T12:44:11.592Z,37.65
2022-08-05T12:46:40.997Z,37.50
2022-08-05T12:49:13.231Z,37.49
2022-08-05T12:52:12.016Z,37.17
2022-08-05T12:54:26.838Z,37.33
2022-08-05T12:56:53.259Z,37.38
2022-08-05T12:59:20.796Z,37.59
2022-08-05T13:02:03.461Z,37.25
2022-08-05T13:04:33.430Z,37.11
2022-08-05T13:07:10.381Z,37.39
2022-08-05T13:09:42.265Z,37.76
2022-08-05T13:12:16.080Z,37.66
2022-08-05T13:14:42.776Z,37.53
2022-08-05T13:17:09.205Z,38.22
2022-08-05T13:19:40.406Z,38.73
2022-08-05T13:22:28.547Z,38.49
2022-08-05T13:24:57.890Z,38.23
2022-08-05T13:27:37.337Z,37.62
2022-08-05T13:30:35.747Z,37.48
2022-08-05T13:32:51.630Z,37.88
2022-08-05T13:35:22.129Z,37.94
2022-08-05T13:37:55.684Z,37.90
2022-08-05T13:40:36.932Z,38.45
2022-08-05T13:43:12.197Z,38.27
2022-08-05T13:45:43.050Z,38.07
2022-08-05T13:48:58.907Z,37.82
2022-08-05T13:50:56.223Z,37.75
2022-08-05T13:53:23.068Z,37.88
2022-08-05T13:55:58.766Z,37.92
2022-08-05T13:58:30.727Z,38.24
2022-08-05T14:00:57.588Z,38.27
2022-08-05T14:03:24.195Z,38.25
2022-08-05T14:06:26.396Z,37.77
2022-08-05T14:08:37.032Z,37.54
2022-08-05T14:11:20.157Z,37.47
2022-08-05T14:13:48.166Z,37.16
2022-08-05T14:16:16.715Z,37.30
2022-08-05T14:18:43.636Z,37.30
2022-08-05T14:22:07.883Z,37.25
2022-08-05T14:23:56.669Z,37.07
2022-08-05T14:26:36.207Z,37.44
2022-08-05T14:29:05.325Z,37.42
2022-08-05T14:32:03.617Z,37.41
2022-08-05T14:34:29.160Z,37.58
2022-08-05T14:37:01.590Z,37.51
2022-08-05T14:39:28.070Z,37.61
2022-08-05T14:42:19.564Z,37.81
2022-08-05T14:44:42.027Z,37.81
2022-08-05T14:47:08.899Z,37.94
2022-08-05T14:49:59.450Z,37.95
2022-08-05T14:52:42.943Z,38.02
2022-08-05T14:55:08.152Z,38.14
2022-08-05T14:57:56.219Z,38.21
2022-08-05T15:00:28.064Z,38.08
2022-08-05T15:02:55.908Z,38.12
2022-08-05T15:05:22.539Z,38.18
2022-08-05T15:08:12.107Z,38.23
2022-08-05T15:10:43.056Z,38.28
2022-08-05T15:13:12.536Z,38.34
2022-08-05T15:15:54.285Z,37.64
2022-08-05T15:18:22.469Z,37.64
2022-08-05T15:20:49.516Z,37.65
2022-08-05T15:23:15.934Z,38.11
2022-08-05T15:25:53.005Z,37.71
2022-08-05T15:28:22.227Z,37.58
2022-08-05T15:30:54.311Z,37.00
2022-08-05T15:34:04.111Z,37.30
2022-08-05T15:36:16.917Z,37.27
2022-08-05T15:38:50.405Z,37.41
2022-08-05T15:41:55.667Z,37.04
2022-08-05T15:44:23.154Z,36.66
2022-08-05T15:46:49.643Z,36.37
2022-08-05T15:49:27.408Z,37.18
2022-08-05T15:52:29.609Z,36.26
2022-08-05T15:54:51.840Z,36.40
2022-08-05T15:57:18.259Z,35.90
2022-08-05T15:59:44.783Z,36.05
2022-08-05T16:02:14.822Z,35.74
2022-08-05T16:04:51.764Z,35.86
2022-08-05T16:07:18.174Z,36.55
2022-08-05T16:09:44.568Z,36.50
2022-08-05T16:12:11.426Z,37.54
2022-08-05T16:14:38.519Z,37.75
2022-08-05T16:17:04.932Z,37.64
2022-08-05T16:20:03.054Z,37.36
2022-08-05T16:22:19.064Z,37.18
2022-08-05T16:24:54.041Z,37.33
2022-08-05T16:27:32.223Z,37.94
2022-08-05T16:30:06.935Z,38.57
2022-08-05T16:32:49.908Z,38.93
2022-08-05T16:35:16.305Z,39.28
2022-08-05T16:38:02.533Z,39.55
2022-08-05T16:40:31.297Z,39.85
2022-08-05T16:42:59.473Z,39.99
2022-08-05T16:46:04.343Z,40.02
2022-08-05T16:48:25.524Z,40.37
2022-08-05T16:50:52.660Z,40.26
2022-08-05T16:53:22.902Z,39.81
2022-08-05T16:55:59.030Z,40.02
2022-08-05T16:58:25.939Z,40.42
2022-08-05T17:00:52.778Z,40.14
2022-08-05T17:03:20.273Z,40.24
2022-08-05T17:05:51.834Z,40.51
2022-08-05T17:08:36.001Z,40.38
2022-08-05T17:11:08.762Z,40.54
2022-08-05T17:13:37.289Z,40.46
2022-08-05T17:16:28.053Z,40.79
2022-08-05T17:18:54.118Z,40.88
2022-08-05T17:21:20.857Z,40.56
2022-08-05T17:24:05.904Z,40.30
2022-08-05T17:26:36.636Z,40.51
2022-08-05T17:29:09.951Z,40.44
2022-08-05T17:31:41.460Z,40.72
2022-08-05T17:34:30.166Z,40.34
2022-08-05T17:36:58.935Z,40.50
2022-08-05T17:39:34.449Z,40.60
2022-08-05T17:42:18.208Z,40.18
2022-08-05T17:44:50.335Z,40.67
2022-08-05T17:47:17.723Z,39.94
2022-08-05T17:49:59.598Z,39.92
2022-08-05T17:52:29.493Z,40.14
2022-08-05T17:54:55.903Z,39.99
2022-08-05T17:57:22.306Z,40.04
2022-08-05T17:59:59.796Z,39.96
2022-08-05T18:02:32.139Z,39.97
2022-08-05T18:04:58.626Z,39.90
2022-08-05T18:07:25.305Z,39.97
2022-08-05T18:10:08.945Z,39.96
2022-08-05T18:12:36.968Z,39.87
2022-08-05T18:15:03.838Z,39.89
2022-08-05T18:18:00.441Z,39.73
2022-08-05T18:20:17.636Z,39.86
2022-08-05T18:22:53.775Z,39.26
2022-08-05T18:25:25.137Z,38.93
2022-08-05T18:27:56.058Z,38.78
2022-08-05T18:30:23.415Z,38.57
2022-08-05T18:32:53.459Z,38.40
2022-08-05T18:35:20.252Z,38.34
2022-08-05T18:38:06.657Z,38.31
2022-08-05T18:41:53.994Z,38.04
2022-08-05T18:43:20.786Z,37.71
2022-08-05T18:45:49.557Z,37.79
2022-08-05T18:48:30.250Z,37.52
2022-08-05T18:51:01.792Z,37.24
2022-08-05T18:53:50.265Z,36.96
2022-08-05T18:56:16.983Z,36.96
2022-08-05T18:58:48.236Z,36.96
2022-08-05T19:01:18.181Z,36.26
2022-08-05T19:03:55.496Z,36.38
2022-08-05T19:06:34.058Z,36.03
2022-08-05T19:09:04.045Z,35.90
2022-08-05T19:11:59.419Z,35.74
2022-08-05T19:14:38.079Z,35.63
2022-08-05T19:17:03.316Z,35.54
2022-08-05T19:19:32.916Z,35.59
2022-08-05T19:22:00.506Z,35.72
2022-08-05T19:24:34.756Z,35.67
2022-08-05T19:27:04.020Z,35.39
2022-08-05T19:29:35.869Z,35.39
2022-08-05T19:32:02.654Z,35.31
2022-08-05T19:34:30.868Z,35.59
2022-08-05T19:36:57.286Z,35.60
2022-08-05T19:39:23.731Z,35.78
2022-08-05T19:42:06.295Z,36.34
2022-08-05T19:44:37.444Z,36.29
2022-08-05T19:47:11.763Z,36.61
2022-08-05T19:49:41.784Z,36.95
2022-08-05T19:52:30.791Z,37.20
2022-08-05T19:54:54.953Z,37.83
2022-08-05T19:57:49.145Z,37.68
2022-08-05T20:00:07.749Z,38.13
2022-08-05T20:02:35.907Z,38.04
2022-08-05T20:05:04.713Z,38.10
2022-08-05T20:07:46.931Z,38.21
2022-08-05T20:10:14.853Z,38.22
2022-08-05T20:12:47.833Z,38.36
2022-08-05T20:15:15.081Z,38.39
2022-08-05T20:17:49.877Z,38.22
2022-08-05T20:20:16.958Z,38.14
2022-08-05T20:22:46.743Z,38.12
2022-08-05T20:25:13.331Z,38.06
2022-08-05T20:27:41.814Z,37.94
2022-08-05T20:30:08.621Z,37.96
2022-08-05T20:32:35.030Z,37.93
2022-08-05T20:35:02.598Z,37.81
2022-08-05T20:38:06.016Z,37.75
2022-08-05T20:40:15.386Z,37.64
2022-08-05T20:42:44.431Z,37.87
2022-08-05T20:45:10.853Z,37.93
2022-08-05T20:47:40.263Z,38.06
2022-08-05T20:50:07.544Z,38.13
2022-08-05T20:52:34.061Z,38.08
2022-08-05T20:55:55.595Z,38.11
2022-08-05T20:57:47.004Z,38.29
2022-08-05T21:00:41.452Z,38.21
2022-08-05T21:03:01.794Z,38.30
2022-08-05T21:05:38.068Z,38.37
2022-08-05T21:08:14.589Z,38.33
2022-08-05T21:10:40.984Z,38.32
2022-08-05T21:13:20.271Z,38.38
2022-08-05T21:15:53.070Z,38.79
2022-08-05T21:18:19.473Z,38.72
2022-08-05T21:20:49.734Z,38.71
2022-08-05T21:23:16.165Z,38.77
2022-08-05T21:25:42.588Z,38.78
2022-08-05T21:28:09.002Z,38.70
2022-08-05T21:30:36.312Z,38.86
2022-08-05T21:33:02.709Z,38.76
2022-08-05T21:35:43.651Z,38.88
2022-08-05T21:38:21.131Z,38.96
2022-08-05T21:40:47.553Z,38.92
2022-08-05T21:43:24.254Z,39.06
2022-08-05T21:45:51.838Z,38.98
2022-08-05T21:48:23.551Z,39.14
2022-08-05T21:50:54.114Z,39.19
2022-08-05T21:53:20.837Z,39.27
2022-08-05T21:56:05.780Z,39.34
2022-08-05T21:58:33.621Z,39.31
2022-08-05T22:01:00.384Z,39.26
2022-08-05T22:03:52.601Z,39.39
2022-08-05T22:06:13.620Z,39.48
2022-08-05T22:08:42.468Z,39.37
2022-08-05T22:11:09.311Z,39.27
2022-08-05T22:14:32.368Z,39.18
2022-08-05T22:16:41.364Z,39.28
2022-08-05T22:19:15.245Z,39.12
2022-08-05T22:21:56.113Z,39.38
2022-08-05T22:24:39.628Z,39.69
2022-08-05T22:27:11.073Z,39.80
2022-08-05T22:29:43.735Z,40.08
2022-08-05T22:32:12.398Z,40.23
2022-08-05T22:34:44.010Z,40.35
2022-08-05T22:37:12.143Z,40.30
2022-08-05T22:39:38.620Z,40.43
2022-08-05T22:42:10.152Z,40.48
2022-08-05T22:44:38.452Z,40.77
2022-08-05T22:47:05.671Z,40.74
2022-08-05T22:50:18.526Z,40.83
2022-08-05T22:52:30.707Z,40.77
2022-08-05T22:55:00.832Z,40.91
2022-08-05T22:57:27.244Z,40.88
2022-08-05T23:00:02.886Z,40.93
2022-08-05T23:02:30.252Z,40.96
2022-08-05T23:04:56.852Z,40.93
2022-08-05T23:07:23.256Z,41.07
2022-08-05T23:09:57.068Z,40.96
2022-08-05T23:12:28.849Z,41.13
2022-08-05T23:14:55.495Z,41.03
2022-08-05T23:17:24.530Z,41.01
2022-08-05T23:19:59.416Z,41.01
2022-08-05T23:22:27.126Z,40.85
2022-08-05T23:24:54.188Z,40.81
2022-08-05T23:27:20.605Z,40.65
2022-08-05T23:29:49.168Z,40.72
2022-08-05T23:32:17.136Z,40.80
2022-08-05T23:34:49.412Z,40.70
2022-08-05T23:37:17.205Z,40.78
2022-08-05T23:39:53.791Z,40.67
2022-08-05T23:42:23.579Z,40.51
2022-08-05T23:44:55.863Z,40.55
2022-08-05T23:47:22.259Z,40.52
2022-08-05T23:49:52.020Z,40.56
2022-08-05T23:52:21.878Z,40.60
2022-08-05T23:54:51.772Z,40.63
2022-08-05T23:57:18.730Z,40.80
